Time;durP1;ratioP1;P1;durP2;ratioP2;P2;SDS_P1;SDS_P2;PMS_P1;PMS_P2;Temp;Humidity;BMP_temperature;BMP_pressure;BME280_temperature;BME280_humidity;BME280_pressure;Samples;Min_cycle;Max_cycle;Signal;HPM_P1;HPM_P2
2022/04/16 00:00:06;;;;;;;20.77;7.95;;;11.20;99.90;;;;;;5049184;28;20037;-65
2022/04/16 00:02:32;;;;;;;17.10;8.23;;;11.20;99.90;;;;;;5048737;28;20029;-63
2022/04/16 00:04:57;;;;;;;19.35;8.73;;;11.20;99.90;;;;;;5048201;28;20032;-62
2022/04/16 00:07:23;;;;;;;17.17;8.35;;;11.10;99.90;;;;;;5051480;28;20025;-63
2022/04/16 00:09:48;;;;;;;16.85;8.05;;;11.10;99.90;;;;;;5050048;28;20025;-62
2022/04/16 00:12:14;;;;;;;17.55;8.50;;;11.10;99.90;;;;;;5051239;28;20472;-63
2022/04/16 00:14:40;;;;;;;18.02;9.30;;;11.10;99.90;;;;;;5049554;28;20029;-64
2022/04/16 00:17:06;;;;;;;15.60;8.10;;;11.10;99.90;;;;;;5037029;28;20029;-65
2022/04/16 00:19:32;;;;;;;17.42;9.02;;;11.10;99.90;;;;;;5050007;28;20067;-64
2022/04/16 00:21:59;;;;;;;15.93;7.55;;;11.10;99.90;;;;;;5042105;28;20021;-65
2022/04/16 00:24:28;;;;;;;17.13;8.27;;;11.10;99.90;;;;;;5043264;28;20571;-65
2022/04/16 00:26:54;;;;;;;14.00;7.93;;;11.10;99.90;;;;;;5049683;28;20595;-66
2022/04/16 00:29:20;;;;;;;14.40;7.93;;;11.00;99.90;;;;;;5049559;28;20081;-63
2022/04/16 00:31:45;;;;;;;24.90;11.93;;;11.00;99.90;;;;;;5049640;28;20024;-64
2022/04/16 00:34:14;;;;;;;16.65;8.20;;;11.10;99.90;;;;;;5050893;28;20048;-63
2022/04/16 00:36:44;;;;;;;15.50;7.93;;;11.00;99.90;;;;;;5050060;28;20484;-65
2022/04/16 00:39:10;;;;;;;14.60;7.85;;;11.00;99.90;;;;;;5030880;28;20021;-65
2022/04/16 00:41:37;;;;;;;16.15;8.10;;;11.00;99.90;;;;;;5038608;28;20036;-66
2022/04/16 00:44:02;;;;;;;17.20;8.18;;;11.00;99.90;;;;;;5050630;28;20457;-66
2022/04/16 00:46:28;;;;;;;13.98;8.02;;;10.90;99.90;;;;;;5048808;28;20055;-62
2022/04/16 00:48:54;;;;;;;14.77;7.90;;;10.90;99.90;;;;;;5046089;28;20348;-63
2022/04/16 00:51:20;;;;;;;18.70;8.82;;;10.90;99.90;;;;;;5039217;28;20492;-65
2022/04/16 00:53:46;;;;;;;16.70;8.43;;;10.80;99.90;;;;;;5038832;28;20072;-65
2022/04/16 00:56:12;;;;;;;18.13;8.93;;;10.90;99.90;;;;;;5035274;28;20056;-63
2022/04/16 00:58:42;;;;;;;21.27;10.38;;;10.90;99.90;;;;;;5031069;28;20032;-67
2022/04/16 01:01:08;;;;;;;19.27;10.70;;;10.80;99.90;;;;;;5045572;28;20537;-66
2022/04/16 01:03:34;;;;;;;20.60;11.48;;;10.90;99.90;;;;;;5054472;28;20071;-64
2022/04/16 01:06:00;;;;;;;19.23;10.57;;;10.80;99.90;;;;;;5052991;28;20033;-65
2022/04/16 01:08:25;;;;;;;22.52;11.32;;;10.80;99.90;;;;;;5054253;28;20040;-65
2022/04/16 01:10:51;;;;;;;22.98;12.07;;;10.80;99.90;;;;;;5052949;28;20371;-64
2022/04/16 01:13:18;;;;;;;21.77;11.90;;;10.70;99.90;;;;;;5050001;28;20534;-64
2022/04/16 01:15:44;;;;;;;23.55;11.32;;;10.70;99.90;;;;;;5035663;28;20018;-63
2022/04/16 01:18:12;;;;;;;18.60;10.32;;;10.70;99.90;;;;;;5046395;28;20032;-65
2022/04/16 01:20:39;;;;;;;20.67;11.05;;;10.70;99.90;;;;;;5051930;28;20047;-65
2022/04/16 01:23:05;;;;;;;20.20;11.13;;;10.70;99.90;;;;;;5038066;28;20032;-65
2022/04/16 01:25:35;;;;;;;19.85;10.95;;;10.70;99.90;;;;;;5052731;28;20070;-65
2022/04/16 01:28:01;;;;;;;18.63;11.20;;;10.70;99.90;;;;;;5052529;28;20040;-63
2022/04/16 01:30:28;;;;;;;18.70;10.73;;;10.70;99.90;;;;;;5053640;28;20143;-63
2022/04/16 01:32:54;;;;;;;19.77;10.98;;;10.60;99.90;;;;;;5054242;28;20045;-64
2022/04/16 01:35:19;;;;;;;22.77;10.48;;;10.60;99.90;;;;;;5050498;28;20021;-67
2022/04/16 01:37:45;;;;;;;20.15;10.77;;;10.60;99.90;;;;;;5052269;28;22007;-63
2022/04/16 01:40:13;;;;;;;18.85;9.93;;;10.50;99.90;;;;;;5050353;28;20033;-67
2022/04/16 01:42:39;;;;;;;19.80;10.18;;;10.50;99.90;;;;;;5041507;28;20026;-65
2022/04/16 01:45:06;;;;;;;22.40;10.95;;;10.50;99.90;;;;;;5040741;28;20021;-66
2022/04/16 01:47:36;;;;;;;19.10;9.90;;;10.50;99.90;;;;;;5034151;28;20477;-64
2022/04/16 01:50:05;;;;;;;19.08;9.60;;;10.50;99.90;;;;;;5034221;28;20454;-66
2022/04/16 01:52:30;;;;;;;18.95;9.88;;;10.40;99.90;;;;;;5044501;28;20112;-67
2022/04/16 01:54:57;;;;;;;18.88;9.98;;;10.40;99.90;;;;;;5053471;28;20104;-62
2022/04/16 01:57:23;;;;;;;21.42;10.27;;;10.40;99.90;;;;;;5051289;28;20461;-63
2022/04/16 01:59:49;;;;;;;20.70;9.73;;;10.40;99.90;;;;;;5033392;28;20508;-65
2022/04/16 02:02:15;;;;;;;18.70;10.00;;;10.40;99.90;;;;;;5044620;28;20057;-66
2022/04/16 02:04:41;;;;;;;20.95;10.73;;;10.40;99.90;;;;;;5044937;28;20048;-66
2022/04/16 02:07:07;;;;;;;20.73;10.30;;;10.30;99.90;;;;;;5044497;28;20461;-66
2022/04/16 02:09:33;;;;;;;19.17;9.85;;;10.40;99.90;;;;;;5049243;28;20025;-64
2022/04/16 02:11:59;;;;;;;20.70;11.23;;;10.40;99.90;;;;;;5051265;28;20033;-63
2022/04/16 02:14:25;;;;;;;19.10;9.48;;;10.30;99.90;;;;;;5050805;28;20469;-66
2022/04/16 02:16:50;;;;;;;25.08;11.05;;;10.30;99.90;;;;;;5051817;28;20456;-62
2022/04/16 02:19:16;;;;;;;22.55;11.60;;;10.20;99.90;;;;;;5045146;28;20025;-64
2022/04/16 02:21:43;;;;;;;20.42;10.82;;;10.20;99.90;;;;;;5047897;28;20037;-62
2022/04/16 02:24:08;;;;;;;20.67;11.40;;;10.20;99.90;;;;;;5037886;28;20538;-64
2022/04/16 02:26:34;;;;;;;22.40;11.63;;;10.10;99.90;;;;;;5045424;28;20053;-65
2022/04/16 02:29:00;;;;;;;21.40;11.90;;;10.00;99.90;;;;;;5040536;28;20031;-62
2022/04/16 02:31:26;;;;;;;20.98;10.95;;;9.90;99.90;;;;;;5047374;28;20029;-64
2022/04/16 02:33:52;;;;;;;23.88;12.93;;;9.90;99.90;;;;;;5048765;28;20060;-65
2022/04/16 02:36:19;;;;;;;22.55;11.93;;;9.80;99.90;;;;;;5038327;28;20495;-62
2022/04/16 02:38:46;;;;;;;20.90;11.20;;;9.60;99.90;;;;;;5052644;28;20032;-64
2022/04/16 02:41:12;;;;;;;23.40;12.90;;;9.60;99.90;;;;;;5044557;28;20029;-66
2022/04/16 02:43:37;;;;;;;25.00;13.43;;;9.60;99.90;;;;;;5041341;28;20078;-63
2022/04/16 02:48:48;;;;;;;24.88;12.25;;;9.50;99.90;;;;;;5052368;28;20424;-64
2022/04/16 02:51:13;;;;;;;20.52;11.02;;;9.40;99.90;;;;;;5036409;28;20026;-62
2022/04/16 02:53:39;;;;;;;22.80;12.30;;;9.40;99.90;;;;;;5032637;28;20041;-63
2022/04/16 02:56:04;;;;;;;24.33;12.35;;;9.30;99.90;;;;;;5032872;28;20029;-62
2022/04/16 02:58:30;;;;;;;23.23;13.20;;;9.30;99.90;;;;;;5040842;28;20047;-66
2022/04/16 03:00:55;;;;;;;23.17;12.77;;;9.20;99.90;;;;;;5039268;28;20029;-64
2022/04/16 03:03:24;;;;;;;24.75;14.25;;;9.20;99.90;;;;;;5048614;28;20021;-64
2022/04/16 03:05:50;;;;;;;24.55;14.13;;;9.20;99.90;;;;;;5032531;28;20057;-64
2022/04/16 03:08:15;;;;;;;24.48;13.15;;;9.20;99.90;;;;;;5032764;28;20057;-64
2022/04/16 03:10:41;;;;;;;25.05;13.13;;;9.10;99.90;;;;;;5034107;28;20040;-63
2022/04/16 03:13:07;;;;;;;24.75;13.63;;;9.10;99.90;;;;;;5045863;28;20087;-63
2022/04/16 03:18:18;;;;;;;26.67;15.02;;;9.00;99.90;;;;;;5032619;28;20038;-63
2022/04/16 03:20:44;;;;;;;25.60;14.25;;;9.00;99.90;;;;;;5033628;28;20037;-65
2022/04/16 03:23:10;;;;;;;27.48;14.95;;;8.90;99.90;;;;;;5050766;28;20032;-64
2022/04/16 03:25:40;;;;;;;24.98;13.70;;;9.00;99.90;;;;;;5035592;28;20040;-65
2022/04/16 03:28:06;;;;;;;26.08;14.50;;;8.90;99.90;;;;;;5052965;28;20068;-64
2022/04/16 03:30:32;;;;;;;25.83;14.02;;;8.90;99.90;;;;;;5050400;28;20067;-64
2022/04/16 03:32:58;;;;;;;25.95;14.07;;;8.90;99.90;;;;;;5040160;28;20041;-64
2022/04/16 03:35:24;;;;;;;26.98;13.90;;;8.80;99.90;;;;;;5045019;28;20040;-64
2022/04/16 03:37:50;;;;;;;24.27;13.63;;;8.80;99.90;;;;;;5032638;28;20037;-67
2022/04/16 03:40:16;;;;;;;26.70;13.80;;;8.80;99.90;;;;;;5032490;28;20034;-63
2022/04/16 03:42:45;;;;;;;26.25;13.43;;;8.80;99.90;;;;;;5031916;28;20071;-65
2022/04/16 03:45:15;;;;;;;26.10;13.85;;;8.70;99.90;;;;;;5031990;28;20416;-62
2022/04/16 03:47:41;;;;;;;29.55;14.57;;;8.70;99.90;;;;;;5040261;28;20381;-63
2022/04/16 03:50:07;;;;;;;28.75;14.38;;;8.60;99.90;;;;;;5052198;28;20108;-64
2022/04/16 03:52:44;;;;;;;27.52;14.93;;;8.60;99.90;;;;;;5033707;28;20038;-65
2022/04/16 04:00:43;;;;;;;27.05;15.05;;;8.50;99.90;;;;;;5052004;28;20086;-67
2022/04/16 04:03:12;;;;;;;32.55;15.27;;;8.40;99.90;;;;;;5048444;28;20368;-66
2022/04/16 04:05:39;;;;;;;27.52;14.27;;;8.40;99.90;;;;;;5041494;28;20036;-63
2022/04/16 04:08:09;;;;;;;28.13;15.63;;;8.30;99.90;;;;;;5047884;28;20029;-64
2022/04/16 04:10:35;;;;;;;29.85;15.32;;;8.30;99.90;;;;;;5046565;28;20028;-63
2022/04/16 04:13:01;;;;;;;29.08;15.40;;;8.30;99.90;;;;;;5040556;28;20064;-63
2022/04/16 04:15:27;;;;;;;39.70;15.98;;;8.30;99.90;;;;;;5034847;28;20025;-62
2022/04/16 04:17:53;;;;;;;27.15;14.70;;;8.30;99.90;;;;;;5046314;28;20032;-63
2022/04/16 04:20:19;;;;;;;33.58;17.10;;;8.30;99.90;;;;;;5032020;28;20461;-62
2022/04/16 04:22:45;;;;;;;33.03;17.33;;;8.30;99.90;;;;;;5032039;28;20044;-63
2022/04/16 04:25:10;;;;;;;30.95;17.27;;;8.30;99.90;;;;;;5032150;28;20029;-63
2022/04/16 04:27:36;;;;;;;31.95;18.13;;;8.30;99.90;;;;;;5035436;28;20057;-63
2022/04/16 04:30:02;;;;;;;30.08;17.05;;;8.20;99.90;;;;;;5043401;28;20476;-63
2022/04/16 04:32:28;;;;;;;34.80;17.10;;;8.20;99.90;;;;;;5033401;28;20022;-63
2022/04/16 04:34:54;;;;;;;35.00;19.17;;;8.10;99.90;;;;;;5035375;28;20042;-63
2022/04/16 04:37:20;;;;;;;33.80;19.45;;;8.10;99.90;;;;;;5034648;28;20462;-63
2022/04/16 04:39:45;;;;;;;32.78;17.75;;;8.10;99.90;;;;;;5035894;28;20025;-62
2022/04/16 04:42:11;;;;;;;33.60;17.92;;;8.10;99.90;;;;;;5038798;28;20090;-63
2022/04/16 04:44:36;;;;;;;34.60;19.42;;;8.10;99.90;;;;;;5054079;28;20029;-63
2022/04/16 04:47:02;;;;;;;33.20;17.67;;;8.10;99.90;;;;;;5045677;28;20026;-63
2022/04/16 04:49:28;;;;;;;36.35;18.27;;;8.10;99.90;;;;;;5056450;28;20449;-63
2022/04/16 04:51:53;;;;;;;31.27;17.25;;;8.10;99.90;;;;;;5037232;28;20029;-64
2022/04/16 04:54:21;;;;;;;32.20;17.58;;;8.10;99.90;;;;;;5035321;28;20103;-63
2022/04/16 04:56:47;;;;;;;33.80;18.73;;;8.10;99.90;;;;;;5040425;28;20571;-63
2022/04/16 04:59:12;;;;;;;37.28;18.90;;;8.10;99.90;;;;;;5051892;28;20033;-63
2022/04/16 05:01:39;;;;;;;32.92;18.10;;;8.10;99.90;;;;;;5035529;28;20021;-62
2022/04/16 05:04:04;;;;;;;36.53;18.98;;;8.10;99.90;;;;;;5054191;28;20124;-62
2022/04/16 05:06:30;;;;;;;34.42;19.38;;;8.10;99.90;;;;;;5043204;28;20036;-63
2022/04/16 05:08:56;;;;;;;37.95;19.25;;;8.20;99.90;;;;;;5057502;28;20017;-63
2022/04/16 05:11:21;;;;;;;36.80;18.98;;;8.20;99.90;;;;;;5041447;28;20021;-63
2022/04/16 05:13:47;;;;;;;37.65;19.30;;;8.30;99.90;;;;;;5049012;28;20041;-64
2022/04/16 05:16:13;;;;;;;34.97;19.17;;;8.30;99.90;;;;;;5052602;28;20029;-64
2022/04/16 05:18:40;;;;;;;38.97;19.77;;;8.30;99.90;;;;;;5040411;28;20032;-64
2022/04/16 05:21:05;;;;;;;35.28;19.15;;;8.40;99.90;;;;;;5036570;28;20026;-63
2022/04/16 05:23:31;;;;;;;36.72;20.70;;;8.40;99.90;;;;;;5054639;28;20449;-63
2022/04/16 05:25:56;;;;;;;34.15;19.15;;;8.50;99.90;;;;;;5052218;28;20039;-63
2022/04/16 05:28:22;;;;;;;35.38;20.10;;;8.60;99.90;;;;;;5052602;28;20031;-64
2022/04/16 05:30:55;;;;;;;34.88;19.73;;;8.60;99.90;;;;;;5043487;28;20059;-64
2022/04/16 05:36:06;;;;;;;34.38;19.80;;;8.70;99.90;;;;;;5045974;28;20539;-63
2022/04/16 05:38:32;;;;;;;38.63;20.75;;;8.80;99.90;;;;;;5054767;28;20033;-62
2022/04/16 05:40:58;;;;;;;35.13;18.65;;;8.80;99.90;;;;;;5052765;28;20071;-63
2022/04/16 05:43:23;;;;;;;37.75;20.58;;;8.90;99.90;;;;;;5051855;28;20040;-64
2022/04/16 05:45:49;;;;;;;37.20;20.38;;;8.90;99.90;;;;;;5051051;28;20497;-63
2022/04/16 05:48:14;;;;;;;33.60;19.05;;;9.00;99.90;;;;;;5039406;28;20029;-63
2022/04/16 05:50:41;;;;;;;34.08;18.42;;;9.10;99.90;;;;;;5062427;28;20010;-63
2022/04/16 05:53:09;;;;;;;32.25;19.13;;;9.20;99.90;;;;;;5034036;28;20041;-64
2022/04/16 05:55:35;;;;;;;35.30;17.88;;;9.30;99.90;;;;;;5047821;28;20445;-64
2022/04/16 05:58:01;;;;;;;38.72;19.10;;;9.30;99.90;;;;;;5050644;28;20079;-64
2022/04/16 06:00:28;;;;;;;34.40;18.73;;;9.40;99.90;;;;;;5051382;28;20505;-64
2022/04/16 06:02:55;;;;;;;34.60;19.27;;;9.40;99.90;;;;;;5051402;28;20047;-64
2022/04/16 06:05:22;;;;;;;34.55;19.08;;;9.50;99.90;;;;;;5052266;28;20365;-64
2022/04/16 06:07:48;;;;;;;33.50;18.25;;;9.60;99.90;;;;;;5037354;28;20449;-65
2022/04/16 06:10:14;;;;;;;33.47;18.17;;;9.70;99.90;;;;;;5035818;28;20401;-63
2022/04/16 06:12:41;;;;;;;37.40;19.13;;;9.80;99.90;;;;;;5052068;28;20036;-64
2022/04/16 06:15:07;;;;;;;31.38;17.70;;;9.90;99.90;;;;;;5051642;28;20040;-65
2022/04/16 06:17:32;;;;;;;36.75;19.65;;;10.00;99.90;;;;;;5044895;28;20028;-64
2022/04/16 06:19:58;;;;;;;34.33;19.05;;;10.10;99.90;;;;;;5053008;28;20104;-64
2022/04/16 06:22:24;;;;;;;34.25;18.70;;;10.20;99.90;;;;;;5052305;28;20119;-64
2022/04/16 06:24:49;;;;;;;34.55;19.38;;;10.20;99.90;;;;;;5052544;28;20060;-63
2022/04/16 06:27:15;;;;;;;30.73;18.65;;;10.40;99.90;;;;;;5035114;28;20073;-64
2022/04/16 06:29:41;;;;;;;34.00;18.92;;;10.50;99.90;;;;;;5033424;28;20037;-65
2022/04/16 06:32:07;;;;;;;33.45;19.92;;;10.60;99.90;;;;;;5057390;28;20062;-63
2022/04/16 06:34:33;;;;;;;28.15;17.17;;;10.70;99.90;;;;;;5050655;28;20036;-64
2022/04/16 06:36:59;;;;;;;31.50;18.83;;;10.80;99.90;;;;;;5051379;28;20476;-63
2022/04/16 06:39:25;;;;;;;32.72;18.48;;;11.00;99.90;;;;;;5052832;28;20110;-64
2022/04/16 06:41:50;;;;;;;29.48;17.77;;;11.10;99.90;;;;;;5040154;28;20038;-64
2022/04/16 06:44:16;;;;;;;29.27;16.77;;;11.20;99.90;;;;;;5033470;28;20026;-64
2022/04/16 06:46:41;;;;;;;31.60;18.13;;;11.40;99.90;;;;;;5039334;28;20025;-63
2022/04/16 06:49:07;;;;;;;31.58;17.35;;;11.60;99.90;;;;;;5032896;28;20032;-64
2022/04/16 06:51:32;;;;;;;29.83;16.83;;;11.80;99.90;;;;;;5031619;28;20102;-63
2022/04/16 06:54:00;;;;;;;29.58;17.38;;;12.00;99.90;;;;;;5033496;28;20468;-64
2022/04/16 06:56:25;;;;;;;29.35;15.88;;;12.20;99.90;;;;;;5046337;28;20024;-64
2022/04/16 06:58:51;;;;;;;29.45;17.48;;;12.50;99.90;;;;;;5034209;28;20029;-63
2022/04/16 07:01:16;;;;;;;29.90;17.00;;;12.90;99.90;;;;;;5051113;28;20024;-64
2022/04/16 07:03:42;;;;;;;28.02;15.90;;;13.20;99.90;;;;;;5045117;28;20454;-64
2022/04/16 07:06:08;;;;;;;27.63;15.02;;;13.70;99.90;;;;;;5045339;28;20025;-63
2022/04/16 07:08:33;;;;;;;27.92;16.42;;;14.00;99.90;;;;;;5052871;28;20052;-63
2022/04/16 07:10:59;;;;;;;29.73;15.85;;;14.20;99.90;;;;;;5040920;28;20095;-64
2022/04/16 07:13:24;;;;;;;26.80;15.93;;;14.40;99.90;;;;;;5065858;28;20037;-63
2022/04/16 07:15:50;;;;;;;27.00;16.35;;;14.30;99.90;;;;;;5050441;28;20442;-65
2022/04/16 07:18:16;;;;;;;28.92;16.30;;;14.10;99.90;;;;;;5049986;28;20035;-63
2022/04/16 07:20:42;;;;;;;28.02;16.52;;;14.10;99.90;;;;;;5049441;28;20405;-64
2022/04/16 07:23:08;;;;;;;28.30;16.45;;;14.00;99.90;;;;;;5046934;28;20469;-63
2022/04/16 07:25:34;;;;;;;26.15;16.10;;;14.10;99.90;;;;;;5032615;28;20068;-63
2022/04/16 07:28:00;;;;;;;28.02;16.30;;;14.20;99.90;;;;;;5031032;28;20856;-63
2022/04/16 07:30:27;;;;;;;29.38;16.85;;;14.40;99.90;;;;;;5039219;28;20107;-63
2022/04/16 07:32:53;;;;;;;28.52;16.75;;;14.70;99.90;;;;;;5050229;28;20029;-63
2022/04/16 07:35:18;;;;;;;28.77;16.73;;;15.00;99.90;;;;;;5043061;28;20028;-63
2022/04/16 07:37:44;;;;;;;27.17;16.50;;;15.30;99.90;;;;;;5050832;28;20036;-63
2022/04/16 07:40:10;;;;;;;29.80;17.17;;;15.60;99.90;;;;;;5047473;28;20025;-64
2022/04/16 07:42:35;;;;;;;26.45;16.30;;;15.80;99.90;;;;;;5060396;28;20469;-63
2022/04/16 07:45:01;;;;;;;29.42;17.73;;;16.10;99.90;;;;;;5039864;28;20480;-63
2022/04/16 07:47:27;;;;;;;27.88;17.02;;;16.30;99.90;;;;;;5032353;28;20025;-63
2022/04/16 07:49:52;;;;;;;26.55;16.15;;;16.40;99.90;;;;;;5041590;28;20029;-63
2022/04/16 07:52:18;;;;;;;26.42;16.30;;;16.50;99.90;;;;;;5036745;28;20026;-62
2022/04/16 07:54:43;;;;;;;25.00;15.93;;;16.60;99.90;;;;;;5045101;28;20045;-63
2022/04/16 07:57:09;;;;;;;25.92;15.43;;;16.90;99.90;;;;;;5044755;28;20095;-64
2022/04/16 07:59:34;;;;;;;25.25;15.80;;;17.30;99.90;;;;;;5049574;28;20024;-63
2022/04/16 08:02:00;;;;;;;24.75;14.77;;;17.60;99.90;;;;;;5048950;28;20029;-63
2022/04/16 08:04:26;;;;;;;26.80;15.80;;;17.80;99.90;;;;;;5050769;28;20083;-63
2022/04/16 08:06:51;;;;;;;24.23;15.43;;;18.00;99.90;;;;;;5046743;28;20033;-63
2022/04/16 08:09:18;;;;;;;22.30;14.05;;;18.20;99.90;;;;;;5036397;28;20079;-64
2022/04/16 08:11:46;;;;;;;25.52;14.45;;;18.90;99.00;;;;;;5047842;28;20021;-63
2022/04/16 08:14:12;;;;;;;24.05;14.55;;;19.50;98.10;;;;;;5036226;28;20041;-63
2022/04/16 08:16:38;;;;;;;22.60;14.20;;;20.30;96.80;;;;;;5050974;28;20082;-64
2022/04/16 08:19:03;;;;;;;24.15;14.07;;;21.00;95.90;;;;;;5045380;28;20025;-64
2022/04/16 08:21:30;;;;;;;21.30;13.50;;;21.60;94.50;;;;;;5050430;28;20033;-64
2022/04/16 08:24:04;;;;;;;20.67;12.75;;;22.00;93.20;;;;;;5035939;28;20360;-63
2022/04/16 08:26:32;;;;;;;19.77;12.68;;;22.30;92.60;;;;;;5050460;28;20487;-63
2022/04/16 08:28:58;;;;;;;20.00;13.20;;;22.30;92.00;;;;;;5047389;28;20099;-63
2022/04/16 08:31:23;;;;;;;22.40;13.63;;;22.50;91.60;;;;;;5046002;28;20056;-64
2022/04/16 08:33:49;;;;;;;20.70;13.75;;;22.80;90.80;;;;;;5039870;28;20043;-64
2022/04/16 08:36:15;;;;;;;21.52;13.23;;;23.10;90.50;;;;;;5050545;28;20040;-64
2022/04/16 08:38:41;;;;;;;21.63;13.80;;;23.30;90.10;;;;;;5042583;28;20029;-64
2022/04/16 08:41:09;;;;;;;20.13;12.45;;;23.20;89.40;;;;;;5045637;28;20029;-64
2022/04/16 08:43:35;;;;;;;19.75;13.40;;;23.50;88.50;;;;;;5054035;28;20021;-63
2022/04/16 08:46:03;;;;;;;20.10;12.43;;;23.60;87.50;;;;;;5038167;28;20032;-64
2022/04/16 08:48:31;;;;;;;20.17;12.35;;;23.70;86.40;;;;;;5050177;28;20032;-64
2022/04/16 08:50:58;;;;;;;21.15;12.50;;;24.00;85.60;;;;;;5047782;28;20028;-64
2022/04/16 08:53:25;;;;;;;18.80;12.55;;;24.30;84.40;;;;;;5054239;28;20040;-63
2022/04/16 08:55:50;;;;;;;19.65;12.60;;;24.40;83.90;;;;;;5037816;28;20045;-64
2022/04/16 08:58:16;;;;;;;20.25;12.23;;;24.60;82.40;;;;;;5051728;28;20020;-64
2022/04/16 09:00:41;;;;;;;19.65;13.20;;;24.40;82.30;;;;;;5055009;28;20021;-64
2022/04/16 09:03:09;;;;;;;20.52;12.93;;;23.90;83.50;;;;;;5053512;28;20125;-64
2022/04/16 09:05:35;;;;;;;21.48;12.60;;;23.90;83.70;;;;;;5054048;28;20086;-64
2022/04/16 09:08:03;;;;;;;19.92;12.65;;;24.30;82.40;;;;;;5054385;28;20029;-64
2022/04/16 09:10:30;;;;;;;20.27;12.48;;;25.10;80.10;;;;;;5054749;28;20028;-64
2022/04/16 09:12:58;;;;;;;19.48;12.90;;;25.60;79.20;;;;;;5054060;28;20049;-64
2022/04/16 09:15:25;;;;;;;20.80;13.25;;;25.80;78.40;;;;;;5053371;28;20025;-64
2022/04/16 09:18:06;;;;;;;20.73;12.90;;;26.00;77.90;;;;;;5054639;28;20017;-63
2022/04/16 09:20:35;;;;;;;19.27;13.10;;;26.30;77.60;;;;;;5054405;28;20024;-64
2022/04/16 09:23:14;;;;;;;18.27;13.02;;;26.90;76.00;;;;;;5054836;28;20059;-64
2022/04/16 09:25:42;;;;;;;19.42;12.70;;;26.90;75.30;;;;;;5049645;28;20013;-64
2022/04/16 09:28:08;;;;;;;18.42;12.45;;;26.40;75.20;;;;;;5054451;28;20080;-64
2022/04/16 09:30:34;;;;;;;17.50;11.48;;;26.30;74.70;;;;;;5054033;28;20398;-64
2022/04/16 09:33:01;;;;;;;18.50;12.48;;;26.60;74.10;;;;;;5054400;28;20062;-64
2022/04/16 09:35:35;;;;;;;18.48;11.98;;;27.20;73.50;;;;;;5054849;28;20013;-64
2022/04/16 09:38:06;;;;;;;18.98;12.15;;;27.60;72.70;;;;;;5053089;28;20052;-64
2022/04/16 09:40:34;;;;;;;18.95;11.77;;;28.10;71.80;;;;;;5054702;28;20454;-64
2022/04/16 09:43:05;;;;;;;17.92;12.07;;;28.60;70.20;;;;;;5054779;28;20025;-64
2022/04/16 09:45:31;;;;;;;17.63;11.38;;;29.20;69.60;;;;;;5054395;28;20037;-64
2022/04/16 09:47:58;;;;;;;16.80;11.32;;;29.90;67.80;;;;;;5054656;28;20028;-62
2022/04/16 09:50:25;;;;;;;19.48;11.18;;;30.10;65.90;;;;;;5054202;28;20108;-63
2022/04/16 09:52:52;;;;;;;21.33;12.32;;;30.10;65.00;;;;;;5052828;28;20465;-64
2022/04/16 09:55:21;;;;;;;16.92;11.60;;;30.20;64.40;;;;;;5055230;28;20028;-63
2022/04/16 09:57:49;;;;;;;16.58;10.90;;;30.10;63.50;;;;;;5054388;28;20063;-64
2022/04/16 10:00:16;;;;;;;17.75;11.65;;;30.00;63.60;;;;;;5054021;28;20096;-63
2022/04/16 10:02:42;;;;;;;17.25;10.50;;;29.90;62.70;;;;;;5052083;28;20496;-63
2022/04/16 10:05:10;;;;;;;15.68;10.82;;;29.60;62.30;;;;;;5052007;28;20457;-63
2022/04/16 10:07:37;;;;;;;16.20;10.65;;;29.60;62.50;;;;;;5053893;28;20465;-63
2022/04/16 10:10:06;;;;;;;15.18;10.00;;;29.80;61.90;;;;;;5056802;28;20025;-63
2022/04/16 10:15:23;;;;;;;14.95;9.50;;;30.10;60.80;;;;;;5048307;28;20086;-64
2022/04/16 10:17:51;;;;;;;15.77;9.63;;;30.50;60.30;;;;;;5059102;28;20075;-64
2022/04/16 10:20:19;;;;;;;15.60;10.25;;;30.00;60.00;;;;;;5054289;28;20017;-64
2022/04/16 10:23:01;;;;;;;14.93;9.43;;;29.80;60.20;;;;;;5060652;28;20167;-64
2022/04/16 10:25:39;;;;;;;16.50;10.32;;;29.70;60.00;;;;;;5056320;28;20024;-64
2022/04/16 10:28:09;;;;;;;16.05;9.70;;;29.00;60.00;;;;;;5054187;28;20048;-64
2022/04/16 10:30:51;;;;;;;15.20;9.85;;;28.20;61.20;;;;;;5049235;28;20067;-64
2022/04/16 10:33:24;;;;;;;;;;;28.20;60.80;;;;;;5044879;28;20449;-64
2022/04/16 10:35:57;;;;;;;15.88;9.23;;;28.00;61.30;;;;;;5042397;28;20372;-64
2022/04/16 10:38:25;;;;;;;15.43;10.02;;;27.90;61.00;;;;;;5057027;28;20040;-64
2022/04/16 10:40:58;;;;;;;14.50;8.60;;;28.10;60.20;;;;;;5054648;28;20047;-64
2022/04/16 10:43:26;;;;;;;14.90;8.88;;;28.50;60.10;;;;;;5041115;28;20028;-65
2022/04/16 10:45:57;;;;;;;13.30;8.20;;;28.90;59.50;;;;;;5045724;28;20029;-64
2022/04/16 10:48:23;;;;;;;15.20;8.38;;;28.30;59.30;;;;;;5055014;28;20013;-64
2022/04/16 10:50:49;;;;;;;13.73;7.97;;;27.50;59.90;;;;;;5055315;28;20111;-64
2022/04/16 10:53:15;;;;;;;14.98;8.10;;;27.00;61.10;;;;;;5042440;28;20041;-64
2022/04/16 10:55:48;;;;;;;12.57;8.35;;;26.80;61.10;;;;;;5064676;28;20439;-64
2022/04/16 10:58:16;;;;;;;14.68;8.68;;;26.90;61.00;;;;;;5049762;28;20082;-64
2022/04/16 11:00:46;;;;;;;14.50;8.20;;;27.00;60.30;;;;;;5050718;28;20427;-64
2022/04/16 11:03:17;;;;;;;10.90;7.30;;;26.60;61.10;;;;;;5049766;28;20065;-64
2022/04/16 11:05:43;;;;;;;;;;;26.80;61.00;;;;;;5067184;28;20103;-66
2022/04/16 11:08:16;;;;;;;13.52;7.53;;;27.10;60.20;;;;;;5067448;28;19933;-65
2022/04/16 11:10:42;;;;;;;11.73;6.75;;;27.20;59.40;;;;;;5072580;28;20025;-63
2022/04/16 11:13:09;;;;;;;11.95;7.15;;;27.20;59.50;;;;;;5059183;28;20041;-63
2022/04/16 11:15:35;;;;;;;13.88;8.25;;;27.30;59.50;;;;;;5068625;28;20020;-63
2022/04/16 11:18:03;;;;;;;10.85;7.00;;;27.30;59.70;;;;;;5054167;28;20012;-64
2022/04/16 11:20:29;;;;;;;13.75;7.90;;;27.00;59.50;;;;;;5059286;28;20137;-64
2022/04/16 11:22:55;;;;;;;12.32;7.43;;;26.80;60.10;;;;;;5057679;28;20017;-65
2022/04/16 11:25:25;;;;;;;11.00;6.95;;;26.90;59.80;;;;;;5055004;28;20037;-67
2022/04/16 11:36:11;;;;;;;11.48;6.70;;;28.00;58.60;;;;;;5045021;28;20039;-66
2022/04/16 11:38:45;;;;;;;10.98;6.40;;;28.40;58.00;;;;;;5045145;28;20461;-64
2022/04/16 11:41:12;;;;;;;11.90;6.63;;;28.50;57.00;;;;;;5060478;28;20035;-64
2022/04/16 11:43:50;;;;;;;11.77;6.88;;;28.40;57.30;;;;;;5038373;28;20029;-63
2022/04/16 11:46:16;;;;;;;10.68;6.63;;;28.30;57.30;;;;;;5042354;28;20514;-63
2022/04/16 11:48:44;;;;;;;10.77;6.60;;;28.50;56.90;;;;;;5050027;28;20025;-63
2022/04/16 11:51:12;;;;;;;12.43;7.30;;;28.60;56.60;;;;;;5041165;28;20036;-63
2022/04/16 11:53:51;;;;;;;12.40;6.70;;;28.70;56.50;;;;;;5066555;28;20119;-63
2022/04/16 11:56:22;;;;;;;12.05;7.07;;;28.90;56.10;;;;;;5053841;28;20040;-63
2022/04/16 11:58:51;;;;;;;9.80;6.20;;;29.10;56.10;;;;;;5060499;28;20368;-64
2022/04/16 12:01:21;;;;;;;11.25;6.93;;;29.40;55.80;;;;;;5030809;28;20033;-65
2022/04/16 12:03:48;;;;;;;11.02;6.78;;;29.70;55.10;;;;;;5040366;28;20052;-65
2022/04/16 12:06:15;;;;;;;11.32;7.03;;;29.90;54.50;;;;;;5045924;28;20026;-66
2022/04/16 12:08:44;;;;;;;11.60;6.70;;;29.20;54.70;;;;;;5033414;28;20068;-63
2022/04/16 12:11:11;;;;;;;9.25;6.55;;;28.90;55.00;;;;;;5032287;28;20057;-67
2022/04/16 12:13:41;;;;;;;8.73;6.05;;;28.80;54.70;;;;;;5038715;28;20037;-63
2022/04/16 12:16:08;;;;;;;8.95;6.22;;;29.00;54.90;;;;;;5052319;28;20484;-64
2022/04/16 12:18:53;;;;;;;9.52;6.05;;;29.10;54.40;;;;;;5049151;28;20017;-63
2022/04/16 12:21:19;;;;;;;11.02;5.90;;;29.10;54.00;;;;;;5052410;28;20013;-63
2022/04/16 12:23:45;;;;;;;8.50;5.70;;;29.30;54.60;;;;;;5050679;28;20349;-63
2022/04/16 12:26:16;;;;;;;9.68;6.20;;;29.50;54.20;;;;;;5052030;28;20052;-63
2022/04/16 12:28:46;;;;;;;9.40;6.30;;;29.70;54.10;;;;;;5041425;28;20021;-64
2022/04/16 12:31:12;;;;;;;11.30;6.45;;;29.80;53.90;;;;;;5036434;28;20029;-64
2022/04/16 12:33:37;;;;;;;10.82;6.15;;;29.70;53.60;;;;;;5051609;28;20037;-64
2022/04/16 12:36:03;;;;;;;10.70;6.93;;;29.70;53.40;;;;;;5045866;28;20155;-64
2022/04/16 12:38:29;;;;;;;9.95;6.25;;;29.50;53.30;;;;;;5055434;28;20116;-64
2022/04/16 12:41:09;;;;;;;9.65;5.93;;;29.20;53.30;;;;;;5049546;28;20035;-64
2022/04/16 12:43:35;;;;;;;10.32;6.45;;;28.60;53.80;;;;;;5053165;28;20439;-63
2022/04/16 12:46:00;;;;;;;10.43;6.05;;;28.30;54.40;;;;;;5054193;28;20055;-63
2022/04/16 12:48:26;;;;;;;9.50;6.03;;;28.10;54.80;;;;;;5063139;28;20068;-64
2022/04/16 12:50:52;;;;;;;8.52;5.45;;;27.80;54.60;;;;;;5041936;28;20025;-63
2022/04/16 12:53:18;;;;;;;10.02;6.10;;;27.40;54.90;;;;;;5049797;28;20453;-63
2022/04/16 12:55:43;;;;;;;9.52;5.60;;;27.00;54.90;;;;;;5070073;28;20024;-63